sensor_id;sensor_type;location;lat;lon;timestamp;pressure;altitude;pressure_sealevel;temperature;humidity
73016;BME280;61893;50.074;14.440;2022-11-25T00:01:08;98524.53;;;5.47;94.66
73016;BME280;61893;50.074;14.440;2022-11-25T00:03:46;98516.47;;;5.49;94.25
73016;BME280;61893;50.074;14.440;2022-11-25T00:06:22;98511.94;;;5.62;94.29
73016;BME280;61893;50.074;14.440;2022-11-25T00:08:54;98514.31;;;5.54;93.50
73016;BME280;61893;50.074;14.440;2022-11-25T00:11:24;98512.75;;;5.62;93.63
73016;BME280;61893;50.074;14.440;2022-11-25T00:13:53;98518.88;;;5.63;93.22
73016;BME280;61893;50.074;14.440;2022-11-25T00:16:21;98513.97;;;5.47;93.53
73016;BME280;61893;50.074;14.440;2022-11-25T00:18:51;98512.28;;;5.69;92.57
73016;BME280;61893;50.074;14.440;2022-11-25T00:21:22;98509.75;;;5.67;92.61
73016;BME280;61893;50.074;14.440;2022-11-25T00:23:53;98509.03;;;5.65;92.65
73016;BME280;61893;50.074;14.440;2022-11-25T00:26:20;98514.22;;;5.55;92.88
73016;BME280;61893;50.074;14.440;2022-11-25T00:28:46;98506.56;;;5.52;93.04
73016;BME280;61893;50.074;14.440;2022-11-25T00:31:21;98512.66;;;5.64;93.10
73016;BME280;61893;50.074;14.440;2022-11-25T00:34:03;98515.66;;;5.37;93.71
73016;BME280;61893;50.074;14.440;2022-11-25T00:36:45;98510.03;;;5.41;94.02
73016;BME280;61893;50.074;14.440;2022-11-25T00:39:13;98512.19;;;5.36;93.59
73016;BME280;61893;50.074;14.440;2022-11-25T00:42:00;98512.06;;;5.38;94.11
73016;BME280;61893;50.074;14.440;2022-11-25T00:44:47;98518.78;;;5.31;94.29
73016;BME280;61893;50.074;14.440;2022-11-25T00:47:17;98516.84;;;5.22;94.48
73016;BME280;61893;50.074;14.440;2022-11-25T00:49:46;98519.00;;;5.28;94.50
73016;BME280;61893;50.074;14.440;2022-11-25T00:52:15;98520.56;;;5.08;96.12
73016;BME280;61893;50.074;14.440;2022-11-25T00:54:45;98516.63;;;5.25;95.28
73016;BME280;61893;50.074;14.440;2022-11-25T00:57:13;98522.47;;;5.17;95.40
73016;BME280;61893;50.074;14.440;2022-11-25T00:59:45;98520.56;;;5.08;95.15
73016;BME280;61893;50.074;14.440;2022-11-25T01:02:11;98523.19;;;5.08;95.14
73016;BME280;61893;50.074;14.440;2022-11-25T01:04:38;98527.66;;;5.18;95.59
73016;BME280;61893;50.074;14.440;2022-11-25T01:07:06;98524.19;;;5.18;94.76
73016;BME280;61893;50.074;14.440;2022-11-25T01:09:53;98525.25;;;5.27;94.80
73016;BME280;61893;50.074;14.440;2022-11-25T01:12:19;98528.00;;;5.36;94.59
73016;BME280;61893;50.074;14.440;2022-11-25T01:14:44;98528.75;;;5.38;94.47
73016;BME280;61893;50.074;14.440;2022-11-25T01:17:10;98522.13;;;5.33;94.38
73016;BME280;61893;50.074;14.440;2022-11-25T01:19:50;98529.19;;;5.55;93.68
73016;BME280;61893;50.074;14.440;2022-11-25T01:22:18;98529.81;;;5.47;92.98
73016;BME280;61893;50.074;14.440;2022-11-25T01:24:43;98533.38;;;5.35;93.52
73016;BME280;61893;50.074;14.440;2022-11-25T01:27:09;98535.66;;;5.17;94.81
73016;BME280;61893;50.074;14.440;2022-11-25T01:29:34;98534.09;;;5.14;95.02
73016;BME280;61893;50.074;14.440;2022-11-25T01:32:01;98537.81;;;5.12;95.11
73016;BME280;61893;50.074;14.440;2022-11-25T01:34:26;98528.78;;;4.92;96.04
73016;BME280;61893;50.074;14.440;2022-11-25T01:36:53;98533.47;;;4.88;96.02
73016;BME280;61893;50.074;14.440;2022-11-25T01:39:20;98525.44;;;4.90;96.36
73016;BME280;61893;50.074;14.440;2022-11-25T01:41:47;98527.69;;;4.83;96.19
73016;BME280;61893;50.074;14.440;2022-11-25T01:44:21;98520.28;;;4.88;96.57
73016;BME280;61893;50.074;14.440;2022-11-25T01:46:54;98521.50;;;4.95;95.66
73016;BME280;61893;50.074;14.440;2022-11-25T01:49:28;98517.88;;;4.85;96.06
73016;BME280;61893;50.074;14.440;2022-11-25T01:52:02;98520.84;;;4.69;97.01
73016;BME280;61893;50.074;14.440;2022-11-25T01:54:37;98519.50;;;4.64;97.01
73016;BME280;61893;50.074;14.440;2022-11-25T01:57:21;98524.66;;;4.65;96.95
73016;BME280;61893;50.074;14.440;2022-11-25T01:59:51;98525.88;;;4.72;96.65
73016;BME280;61893;50.074;14.440;2022-11-25T02:02:48;98515.91;;;4.65;96.79
73016;BME280;61893;50.074;14.440;2022-11-25T02:05:20;98523.53;;;4.57;97.86
73016;BME280;61893;50.074;14.440;2022-11-25T02:07:48;98523.69;;;4.55;97.94
73016;BME280;61893;50.074;14.440;2022-11-25T02:10:20;98520.53;;;4.50;97.77
73016;BME280;61893;50.074;14.440;2022-11-25T02:12:47;98520.28;;;4.42;98.48
73016;BME280;61893;50.074;14.440;2022-11-25T02:15:14;98520.38;;;4.40;97.87
73016;BME280;61893;50.074;14.440;2022-11-25T02:17:41;98519.84;;;4.59;97.98
73016;BME280;61893;50.074;14.440;2022-11-25T02:20:13;98517.13;;;4.61;97.54
73016;BME280;61893;50.074;14.440;2022-11-25T02:23:02;98515.03;;;4.53;98.30
73016;BME280;61893;50.074;14.440;2022-11-25T02:25:34;98516.97;;;4.62;97.10
73016;BME280;61893;50.074;14.440;2022-11-25T02:30:32;98516.84;;;4.53;96.90
73016;BME280;61893;50.074;14.440;2022-11-25T02:32:59;98524.47;;;4.44;97.69
73016;BME280;61893;50.074;14.440;2022-11-25T02:37:57;98521.47;;;4.49;97.75
73016;BME280;61893;50.074;14.440;2022-11-25T02:40:24;98528.09;;;4.55;97.30
73016;BME280;61893;50.074;14.440;2022-11-25T02:42:51;98524.63;;;4.54;97.35
73016;BME280;61893;50.074;14.440;2022-11-25T02:45:21;98523.53;;;4.57;97.83
73016;BME280;61893;50.074;14.440;2022-11-25T02:47:53;98524.63;;;4.54;97.58
73016;BME280;61893;50.074;14.440;2022-11-25T02:50:18;98519.56;;;4.51;97.93
73016;BME280;61893;50.074;14.440;2022-11-25T02:52:44;98519.56;;;4.51;97.61
73016;BME280;61893;50.074;14.440;2022-11-25T02:55:25;98511.34;;;4.56;97.18
73016;BME280;61893;50.074;14.440;2022-11-25T02:57:51;98521.38;;;4.50;97.74
73016;BME280;61893;50.074;14.440;2022-11-25T03:00:17;98524.94;;;4.38;97.64
73016;BME280;61893;50.074;14.440;2022-11-25T03:02:43;98514.84;;;4.32;98.45
73016;BME280;61893;50.074;14.440;2022-11-25T03:05:08;98520.69;;;4.24;98.60
73016;BME280;61893;50.074;14.440;2022-11-25T03:07:34;98523.34;;;4.12;99.26
73016;BME280;61893;50.074;14.440;2022-11-25T03:10:00;98526.03;;;4.23;98.96
73016;BME280;61893;50.074;14.440;2022-11-25T03:12:29;98522.41;;;4.13;99.08
73016;BME280;61893;50.074;14.440;2022-11-25T03:15:06;98525.16;;;4.11;98.53
73016;BME280;61893;50.074;14.440;2022-11-25T03:17:32;98525.50;;;4.06;99.24
73016;BME280;61893;50.074;14.440;2022-11-25T03:19:57;98529.75;;;3.96;99.25
73016;BME280;61893;50.074;14.440;2022-11-25T03:22:23;98529.84;;;3.95;99.59
73016;BME280;61893;50.074;14.440;2022-11-25T03:24:57;98530.53;;;4.10;99.51
73016;BME280;61893;50.074;14.440;2022-11-25T03:27:46;98532.53;;;4.06;99.81
73016;BME280;61893;50.074;14.440;2022-11-25T03:30:17;98541.63;;;4.02;99.32
73016;BME280;61893;50.074;14.440;2022-11-25T03:32:46;98537.81;;;4.06;99.16
73016;BME280;61893;50.074;14.440;2022-11-25T03:35:13;98533.63;;;4.03;99.56
73016;BME280;61893;50.074;14.440;2022-11-25T03:37:55;98534.56;;;4.02;99.55
73016;BME280;61893;50.074;14.440;2022-11-25T03:40:23;98537.63;;;3.96;99.74
73016;BME280;61893;50.074;14.440;2022-11-25T03:42:56;98537.97;;;3.92;99.68
73016;BME280;61893;50.074;14.440;2022-11-25T03:45:23;98539.97;;;3.88;100.00
73016;BME280;61893;50.074;14.440;2022-11-25T03:48:06;98539.25;;;3.86;100.00
73016;BME280;61893;50.074;14.440;2022-11-25T03:50:43;98548.00;;;3.87;100.00
73016;BME280;61893;50.074;14.440;2022-11-25T03:53:09;98542.59;;;3.88;100.00
73016;BME280;61893;50.074;14.440;2022-11-25T03:55:35;98553.13;;;3.88;100.00
73016;BME280;61893;50.074;14.440;2022-11-25T03:58:00;98545.91;;;3.79;100.00
73016;BME280;61893;50.074;14.440;2022-11-25T04:00:26;98539.91;;;3.77;100.00
73016;BME280;61893;50.074;14.440;2022-11-25T04:02:52;98546.34;;;3.73;100.00
73016;BME280;61893;50.074;14.440;2022-11-25T04:05:17;98544.34;;;3.76;100.00
73016;BME280;61893;50.074;14.440;2022-11-25T04:07:43;98548.31;;;3.82;100.00
73016;BME280;61893;50.074;14.440;2022-11-25T04:10:12;98547.66;;;3.91;99.86
73016;BME280;61893;50.074;14.440;2022-11-25T04:12:49;98551.88;;;3.94;99.28
73016;BME280;61893;50.074;14.440;2022-11-25T04:15:17;98546.28;;;3.98;99.05
73016;BME280;61893;50.074;14.440;2022-11-25T04:17:43;98547.72;;;4.02;98.58
73016;BME280;61893;50.074;14.440;2022-11-25T04:20:10;98549.19;;;4.06;99.09
73016;BME280;61893;50.074;14.440;2022-11-25T04:22:36;98550.75;;;4.09;99.22
73016;BME280;61893;50.074;14.440;2022-11-25T04:25:18;98551.66;;;4.21;98.58
73016;BME280;61893;50.074;14.440;2022-11-25T04:27:44;98552.38;;;4.23;98.24
73016;BME280;61893;50.074;14.440;2022-11-25T04:30:10;98550.38;;;4.26;98.81
73016;BME280;61893;50.074;14.440;2022-11-25T04:32:38;98550.38;;;4.26;98.09
73016;BME280;61893;50.074;14.440;2022-11-25T04:35:07;98547.00;;;4.24;98.39
73016;BME280;61893;50.074;14.440;2022-11-25T04:37:33;98554.78;;;4.26;97.81
73016;BME280;61893;50.074;14.440;2022-11-25T04:39:58;98554.63;;;4.16;98.32
73016;BME280;61893;50.074;14.440;2022-11-25T04:42:26;98564.19;;;4.17;98.46
73016;BME280;61893;50.074;14.440;2022-11-25T04:45:11;98560.28;;;4.23;98.96
73016;BME280;61893;50.074;14.440;2022-11-25T04:47:45;98559.56;;;4.21;98.21
73016;BME280;61893;50.074;14.440;2022-11-25T04:50:19;98560.50;;;4.20;98.52
73016;BME280;61893;50.074;14.440;2022-11-25T04:53:01;98560.78;;;4.28;98.79
73016;BME280;61893;50.074;14.440;2022-11-25T04:55:27;98561.47;;;4.19;98.36
73016;BME280;61893;50.074;14.440;2022-11-25T04:57:53;98564.41;;;4.14;99.05
73016;BME280;61893;50.074;14.440;2022-11-25T05:00:19;98569.81;;;4.13;98.93
73016;BME280;61893;50.074;14.440;2022-11-25T05:02:56;98566.00;;;4.17;99.00
73016;BME280;61893;50.074;14.440;2022-11-25T05:05:22;98564.63;;;4.24;98.74
73016;BME280;61893;50.074;14.440;2022-11-25T05:07:47;98570.09;;;4.21;99.00
73016;BME280;61893;50.074;14.440;2022-11-25T05:10:13;98571.03;;;4.20;98.95
73016;BME280;61893;50.074;14.440;2022-11-25T05:12:39;98569.75;;;4.25;98.51
73016;BME280;61893;50.074;14.440;2022-11-25T05:15:08;98582.47;;;4.32;98.05
73016;BME280;61893;50.074;14.440;2022-11-25T05:17:34;98572.06;;;4.30;98.11
73016;BME280;61893;50.074;14.440;2022-11-25T05:20:00;98577.66;;;4.25;98.28
73016;BME280;61893;50.074;14.440;2022-11-25T05:22:30;98574.63;;;4.19;98.62
73016;BME280;61893;50.074;14.440;2022-11-25T05:24:56;98574.97;;;4.14;98.94
73016;BME280;61893;50.074;14.440;2022-11-25T05:27:22;98577.72;;;4.13;99.48
73016;BME280;61893;50.074;14.440;2022-11-25T05:29:48;98573.66;;;4.20;98.87
73016;BME280;61893;50.074;14.440;2022-11-25T05:32:14;98578.22;;;4.18;98.56
73016;BME280;61893;50.074;14.440;2022-11-25T05:34:45;98576.53;;;4.17;98.60
73016;BME280;61893;50.074;14.440;2022-11-25T05:37:29;98572.16;;;4.04;98.80
73016;BME280;61893;50.074;14.440;2022-11-25T05:40:01;98568.94;;;3.88;99.49
73016;BME280;61893;50.074;14.440;2022-11-25T05:42:28;98578.72;;;3.86;100.00
73016;BME280;61893;50.074;14.440;2022-11-25T05:44:56;98574.47;;;3.72;100.00
73016;BME280;61893;50.074;14.440;2022-11-25T05:47:21;98574.78;;;3.68;100.00
73016;BME280;61893;50.074;14.440;2022-11-25T05:49:50;98578.69;;;3.62;100.00
73016;BME280;61893;50.074;14.440;2022-11-25T05:52:15;98578.88;;;3.59;100.00
73016;BME280;61893;50.074;14.440;2022-11-25T05:54:54;98572.19;;;3.55;100.00
73016;BME280;61893;50.074;14.440;2022-11-25T05:57:21;98577.22;;;3.58;100.00
73016;BME280;61893;50.074;14.440;2022-11-25T05:59:50;98574.25;;;3.63;100.00
73016;BME280;61893;50.074;14.440;2022-11-25T06:02:19;98576.25;;;3.46;100.00
73016;BME280;61893;50.074;14.440;2022-11-25T06:04:45;98576.81;;;3.38;100.00
73016;BME280;61893;50.074;14.440;2022-11-25T06:07:16;98581.53;;;3.33;100.00
73016;BME280;61893;50.074;14.440;2022-11-25T06:10:00;98581.44;;;3.35;100.00
73016;BME280;61893;50.074;14.440;2022-11-25T06:12:26;98587.44;;;3.24;100.00
73016;BME280;61893;50.074;14.440;2022-11-25T06:14:52;98592.91;;;3.21;100.00
73016;BME280;61893;50.074;14.440;2022-11-25T06:17:17;98593.84;;;3.20;100.00
73016;BME280;61893;50.074;14.440;2022-11-25T06:19:45;98597.63;;;3.16;100.00
73016;BME280;61893;50.074;14.440;2022-11-25T06:22:13;98596.16;;;3.12;100.00
73016;BME280;61893;50.074;14.440;2022-11-25T06:24:42;98596.25;;;3.10;100.00
73016;BME280;61893;50.074;14.440;2022-11-25T06:27:10;98598.25;;;3.07;100.00
73016;BME280;61893;50.074;14.440;2022-11-25T06:29:40;98596.88;;;3.01;100.00
73016;BME280;61893;50.074;14.440;2022-11-25T06:32:06;98597.59;;;3.03;100.00
73016;BME280;61893;50.074;14.440;2022-11-25T06:34:34;98598.97;;;3.09;100.00
73016;BME280;61893;50.074;14.440;2022-11-25T06:37:00;98605.19;;;3.08;100.00
73016;BME280;61893;50.074;14.440;2022-11-25T06:39:26;98615.50;;;2.98;100.00
73016;BME280;61893;50.074;14.440;2022-11-25T06:41:52;98617.47;;;2.94;100.00
73016;BME280;61893;50.074;14.440;2022-11-25T06:44:23;98620.09;;;2.94;100.00
73016;BME280;61893;50.074;14.440;2022-11-25T06:46:51;98623.34;;;2.85;100.00
73016;BME280;61893;50.074;14.440;2022-11-25T06:49:22;98631.63;;;2.79;100.00
73016;BME280;61893;50.074;14.440;2022-11-25T06:52:01;98637.72;;;2.80;100.00
73016;BME280;61893;50.074;14.440;2022-11-25T06:54:28;98632.66;;;2.77;100.00
73016;BME280;61893;50.074;14.440;2022-11-25T06:57:04;98633.06;;;2.70;100.00
73016;BME280;61893;50.074;14.440;2022-11-25T06:59:40;98634.03;;;2.69;100.00
73016;BME280;61893;50.074;14.440;2022-11-25T07:02:17;98644.22;;;2.74;100.00
73016;BME280;61893;50.074;14.440;2022-11-25T07:04:47;98642.00;;;2.68;100.00
73016;BME280;61893;50.074;14.440;2022-11-25T07:07:42;98650.31;;;2.75;100.00
73016;BME280;61893;50.074;14.440;2022-11-25T07:10:12;98649.06;;;2.80;100.00
73016;BME280;61893;50.074;14.440;2022-11-25T07:13:13;98650.00;;;3.06;100.00
73016;BME280;61893;50.074;14.440;2022-11-25T07:16:07;98654.22;;;3.34;100.00
73016;BME280;61893;50.074;14.440;2022-11-25T07:18:48;98661.47;;;3.31;100.00
73016;BME280;61893;50.074;14.440;2022-11-25T07:22:12;98661.59;;;3.29;100.00
73016;BME280;61893;50.074;14.440;2022-11-25T07:28:20;98668.63;;;3.29;100.00
73016;BME280;61893;50.074;14.440;2022-11-25T07:30:46;98671.66;;;3.23;100.00
73016;BME280;61893;50.074;14.440;2022-11-25T07:33:12;98672.69;;;3.07;100.00
73016;BME280;61893;50.074;14.440;2022-11-25T07:43:37;98681.22;;;3.11;100.00
73016;BME280;61893;50.074;14.440;2022-11-25T07:46:15;98682.19;;;3.23;100.00
73016;BME280;61893;50.074;14.440;2022-11-25T07:59:36;98677.41;;;4.67;100.00
73016;BME280;61893;50.074;14.440;2022-11-25T08:02:08;98677.78;;;6.90;100.00
73016;BME280;61893;50.074;14.440;2022-11-25T08:04:35;98672.03;;;7.59;100.00
73016;BME280;61893;50.074;14.440;2022-11-25T08:07:01;98671.81;;;7.72;100.00
73016;BME280;61893;50.074;14.440;2022-11-25T08:09:26;98673.84;;;7.89;93.15
73016;BME280;61893;50.074;14.440;2022-11-25T08:11:52;98674.72;;;8.80;96.05
73016;BME280;61893;50.074;14.440;2022-11-25T08:14:18;98671.41;;;9.37;89.46
73016;BME280;61893;50.074;14.440;2022-11-25T08:19:31;98672.25;;;7.14;80.69
73016;BME280;61893;50.074;14.440;2022-11-25T08:24:47;98667.72;;;6.84;83.10
73016;BME280;61893;50.074;14.440;2022-11-25T08:27:40;98668.56;;;6.73;83.75
73016;BME280;61893;50.074;14.440;2022-11-25T08:42:12;98692.31;;;5.03;90.53
73016;BME280;61893;50.074;14.440;2022-11-25T08:44:39;98686.59;;;4.85;90.94
73016;BME280;61893;50.074;14.440;2022-11-25T08:47:06;98684.75;;;5.34;89.69
73016;BME280;61893;50.074;14.440;2022-11-25T08:49:32;98689.09;;;5.11;88.94
73016;BME280;61893;50.074;14.440;2022-11-25T08:52:01;98689.56;;;4.81;90.70
73016;BME280;61893;50.074;14.440;2022-11-25T08:54:51;98684.06;;;5.08;89.26
73016;BME280;61893;50.074;14.440;2022-11-25T09:03:19;98685.00;;;5.42;88.94
73016;BME280;61893;50.074;14.440;2022-11-25T09:05:45;98689.22;;;5.45;88.62
73016;BME280;61893;50.074;14.440;2022-11-25T09:08:56;98688.28;;;5.57;87.53
73016;BME280;61893;50.074;14.440;2022-11-25T09:11:47;98687.72;;;5.64;88.36
73016;BME280;61893;50.074;14.440;2022-11-25T09:14:36;98682.91;;;8.48;100.00
73016;BME280;61893;50.074;14.440;2022-11-25T09:17:08;98695.00;;;10.99;100.00
73016;BME280;61893;50.074;14.440;2022-11-25T09:19:33;98686.97;;;12.57;100.00
73016;BME280;61893;50.074;14.440;2022-11-25T09:22:02;98688.25;;;14.02;87.66
73016;BME280;61893;50.074;14.440;2022-11-25T09:24:27;98686.25;;;14.91;80.19
73016;BME280;61893;50.074;14.440;2022-11-25T09:26:53;98682.13;;;15.57;74.87
73016;BME280;61893;50.074;14.440;2022-11-25T09:29:19;98685.94;;;16.15;70.30
73016;BME280;61893;50.074;14.440;2022-11-25T09:31:44;98690.22;;;16.54;66.17
73016;BME280;61893;50.074;14.440;2022-11-25T09:34:29;98690.47;;;12.57;56.64
73016;BME280;61893;50.074;14.440;2022-11-25T09:44:12;98688.34;;;8.47;72.26
73016;BME280;61893;50.074;14.440;2022-11-25T09:47:08;98683.75;;;8.18;72.76
73016;BME280;61893;50.074;14.440;2022-11-25T09:55:40;98671.31;;;7.57;76.82
73016;BME280;61893;50.074;14.440;2022-11-25T09:58:31;98678.09;;;6.65;79.88
73016;BME280;61893;50.074;14.440;2022-11-25T10:29:12;98702.44;;;7.44;78.90
73016;BME280;61893;50.074;14.440;2022-11-25T10:48:16;98709.13;;;6.95;81.17
73016;BME280;61893;50.074;14.440;2022-11-25T10:51:35;98701.81;;;6.98;81.25
73016;BME280;61893;50.074;14.440;2022-11-25T10:54:28;98699.53;;;7.47;79.39
73016;BME280;61893;50.074;14.440;2022-11-25T10:57:19;98703.13;;;7.25;79.96
73016;BME280;61893;50.074;14.440;2022-11-25T11:00:40;98703.50;;;7.20;80.50
73016;BME280;61893;50.074;14.440;2022-11-25T11:03:43;98706.34;;;7.29;80.59
73016;BME280;61893;50.074;14.440;2022-11-25T11:32:36;98694.16;;;7.37;81.61
73016;BME280;61893;50.074;14.440;2022-11-25T11:37:56;98690.06;;;7.12;81.96
73016;BME280;61893;50.074;14.440;2022-11-25T11:48:08;98690.22;;;7.32;81.05
73016;BME280;61893;50.074;14.440;2022-11-25T11:57:03;98690.06;;;7.96;78.70
73016;BME280;61893;50.074;14.440;2022-11-25T12:03:18;98687.53;;;7.95;78.62
73016;BME280;61893;50.074;14.440;2022-11-25T12:05:46;98686.53;;;7.86;77.93
73016;BME280;61893;50.074;14.440;2022-11-25T12:08:34;98691.78;;;7.34;79.99
73016;BME280;61893;50.074;14.440;2022-11-25T12:11:29;98683.44;;;7.60;79.78
73016;BME280;61893;50.074;14.440;2022-11-25T12:14:49;98681.19;;;7.55;79.29
73016;BME280;61893;50.074;14.440;2022-11-25T12:17:36;98678.91;;;7.72;78.74
73016;BME280;61893;50.074;14.440;2022-11-25T12:25:55;98686.53;;;7.86;79.58
73016;BME280;61893;50.074;14.440;2022-11-25T12:28:30;98680.47;;;7.74;78.10
73016;BME280;61893;50.074;14.440;2022-11-25T12:31:14;98682.78;;;7.88;78.66
73016;BME280;61893;50.074;14.440;2022-11-25T12:36:47;98679.66;;;8.04;77.83
73016;BME280;61893;50.074;14.440;2022-11-25T12:39:23;98684.00;;;8.15;77.39
73016;BME280;61893;50.074;14.440;2022-11-25T12:42:01;98681.78;;;7.89;77.57
73016;BME280;61893;50.074;14.440;2022-11-25T12:44:52;98678.50;;;7.97;77.35
73016;BME280;61893;50.074;14.440;2022-11-25T12:47:25;98678.13;;;7.81;78.85
73016;BME280;61893;50.074;14.440;2022-11-25T12:49:54;98676.78;;;8.27;77.02
73016;BME280;61893;50.074;14.440;2022-11-25T12:55:04;98677.88;;;8.45;76.28
73016;BME280;61893;50.074;14.440;2022-11-25T13:00:21;98674.69;;;8.21;76.69
73016;BME280;61893;50.074;14.440;2022-11-25T13:08:30;98672.28;;;8.08;75.68
73016;BME280;61893;50.074;14.440;2022-11-25T13:11:26;98681.84;;;8.30;76.06
73016;BME280;61893;50.074;14.440;2022-11-25T13:16:44;98669.81;;;8.56;74.39
73016;BME280;61893;50.074;14.440;2022-11-25T13:19:15;98678.53;;;8.88;73.51
73016;BME280;61893;50.074;14.440;2022-11-25T13:22:03;98681.19;;;9.07;72.39
73016;BME280;61893;50.074;14.440;2022-11-25T13:24:40;98673.34;;;8.76;73.25
73016;BME280;61893;50.074;14.440;2022-11-25T13:28:00;98683.25;;;8.74;73.59
73016;BME280;61893;50.074;14.440;2022-11-25T13:35:46;98681.91;;;8.40;75.28
73016;BME280;61893;50.074;14.440;2022-11-25T13:39:27;98682.41;;;8.33;75.42
73016;BME280;61893;50.074;14.440;2022-11-25T13:42:25;98685.00;;;8.54;75.60
73016;BME280;61893;50.074;14.440;2022-11-25T13:45:29;98685.84;;;8.45;74.16
73016;BME280;61893;50.074;14.440;2022-11-25T13:50:43;98688.03;;;8.09;75.77
73016;BME280;61893;50.074;14.440;2022-11-25T13:53:33;98693.75;;;8.05;75.91
73016;BME280;61893;50.074;14.440;2022-11-25T13:56:30;98692.53;;;7.88;75.92
73016;BME280;61893;50.074;14.440;2022-11-25T14:04:42;98692.28;;;7.91;76.66
73016;BME280;61893;50.074;14.440;2022-11-25T14:16:56;98687.78;;;7.40;79.62
73016;BME280;61893;50.074;14.440;2022-11-25T14:25:24;98698.59;;;7.16;79.70
73016;BME280;61893;50.074;14.440;2022-11-25T14:28:09;98706.84;;;7.02;80.54
73016;BME280;61893;50.074;14.440;2022-11-25T14:30:47;98706.72;;;6.92;80.95
73016;BME280;61893;50.074;14.440;2022-11-25T14:33:19;98706.50;;;6.84;81.52
73016;BME280;61893;50.074;14.440;2022-11-25T14:36:11;98718.44;;;6.78;82.25
73016;BME280;61893;50.074;14.440;2022-11-25T14:38:50;98723.38;;;6.71;82.49
73016;BME280;61893;50.074;14.440;2022-11-25T14:41:32;98714.03;;;6.67;82.17
73016;BME280;61893;50.074;14.440;2022-11-25T14:44:24;98726.28;;;6.57;83.58
73016;BME280;61893;50.074;14.440;2022-11-25T14:46:52;98725.94;;;6.39;83.77
73016;BME280;61893;50.074;14.440;2022-11-25T14:49:21;98725.38;;;6.24;84.42
73016;BME280;61893;50.074;14.440;2022-11-25T14:51:58;98728.94;;;6.12;84.62
73016;BME280;61893;50.074;14.440;2022-11-25T14:55:03;98725.94;;;5.94;84.84
73016;BME280;61893;50.074;14.440;2022-11-25T14:58:49;98736.50;;;5.94;85.88
73016;BME280;61893;50.074;14.440;2022-11-25T15:02:57;98737.00;;;6.22;85.83
73016;BME280;61893;50.074;14.440;2022-11-25T15:06:27;98734.34;;;6.11;85.20
73016;BME280;61893;50.074;14.440;2022-11-25T15:09:41;98744.75;;;5.90;85.90
73016;BME280;61893;50.074;14.440;2022-11-25T15:12:16;98743.50;;;5.71;86.49
73016;BME280;61893;50.074;14.440;2022-11-25T15:15:13;98752.81;;;5.53;87.96
73016;BME280;61893;50.074;14.440;2022-11-25T15:17:57;98756.34;;;5.40;89.53
73016;BME280;61893;50.074;14.440;2022-11-25T15:20:50;98756.94;;;5.33;89.86
73016;BME280;61893;50.074;14.440;2022-11-25T15:24:00;98755.97;;;5.34;90.49
73016;BME280;61893;50.074;14.440;2022-11-25T15:26:50;98766.91;;;5.40;90.95
73016;BME280;61893;50.074;14.440;2022-11-25T15:37:43;98758.53;;;5.35;90.30
73016;BME280;61893;50.074;14.440;2022-11-25T15:41:46;98758.00;;;5.30;90.57
73016;BME280;61893;50.074;14.440;2022-11-25T15:44:39;98762.09;;;5.34;90.05
73016;BME280;61893;50.074;14.440;2022-11-25T15:47:35;98764.50;;;5.37;89.04
73016;BME280;61893;50.074;14.440;2022-11-25T15:50:48;98769.41;;;5.31;89.34
73016;BME280;61893;50.074;14.440;2022-11-25T15:53:43;98765.09;;;5.30;89.10
73016;BME280;61893;50.074;14.440;2022-11-25T15:56:44;98772.16;;;5.29;89.06
73016;BME280;61893;50.074;14.440;2022-11-25T16:05:15;98770.19;;;5.20;89.64
73016;BME280;61893;50.074;14.440;2022-11-25T16:08:24;98770.59;;;5.27;88.53
73016;BME280;61893;50.074;14.440;2022-11-25T16:12:22;98772.16;;;5.29;91.38
73016;BME280;61893;50.074;14.440;2022-11-25T16:15:59;98768.56;;;5.30;92.68
73016;BME280;61893;50.074;14.440;2022-11-25T16:19:09;98767.31;;;5.23;93.43
73016;BME280;61893;50.074;14.440;2022-11-25T16:22:30;98769.25;;;5.21;93.94
73016;BME280;61893;50.074;14.440;2022-11-25T16:24:59;98774.03;;;5.16;94.25
73016;BME280;61893;50.074;14.440;2022-11-25T16:28:21;98777.88;;;4.99;95.28
73016;BME280;61893;50.074;14.440;2022-11-25T16:30:52;98772.00;;;4.95;95.96
73016;BME280;61893;50.074;14.440;2022-11-25T16:34:17;98776.69;;;4.79;95.60
73016;BME280;61893;50.074;14.440;2022-11-25T16:36:58;98766.88;;;4.81;94.51
73016;BME280;61893;50.074;14.440;2022-11-25T16:39:42;98765.75;;;4.96;94.92
73016;BME280;61893;50.074;14.440;2022-11-25T16:42:20;98771.31;;;5.05;96.16
73016;BME280;61893;50.074;14.440;2022-11-25T16:46:08;98772.47;;;5.01;96.44
73016;BME280;61893;50.074;14.440;2022-11-25T16:48:57;98780.06;;;4.81;97.27
73016;BME280;61893;50.074;14.440;2022-11-25T16:51:25;98778.56;;;4.77;97.95
73016;BME280;61893;50.074;14.440;2022-11-25T16:54:13;98777.00;;;4.74;98.92
73016;BME280;61893;50.074;14.440;2022-11-25T16:57:58;98785.56;;;4.65;98.69
73016;BME280;61893;50.074;14.440;2022-11-25T17:01:53;98779.56;;;4.63;99.10
73016;BME280;61893;50.074;14.440;2022-11-25T17:04:43;98776.81;;;4.65;98.71
73016;BME280;61893;50.074;14.440;2022-11-25T17:07:49;98780.28;;;4.65;99.20
73016;BME280;61893;50.074;14.440;2022-11-25T17:11:49;98786.53;;;4.51;99.65
73016;BME280;61893;50.074;14.440;2022-11-25T17:15:02;98798.53;;;4.68;99.18
73016;BME280;61893;50.074;14.440;2022-11-25T17:22:26;98806.56;;;4.54;98.50
73016;BME280;61893;50.074;14.440;2022-11-25T17:26:38;98800.56;;;4.39;98.75
73016;BME280;61893;50.074;14.440;2022-11-25T17:29:43;98807.94;;;4.34;98.53
73016;BME280;61893;50.074;14.440;2022-11-25T17:32:17;98821.47;;;4.29;98.70
73016;BME280;61893;50.074;14.440;2022-11-25T17:35:10;98823.09;;;3.79;100.00
73016;BME280;61893;50.074;14.440;2022-11-25T17:38:18;98826.81;;;4.02;100.00
73016;BME280;61893;50.074;14.440;2022-11-25T17:40:49;98829.47;;;3.63;100.00
73016;BME280;61893;50.074;14.440;2022-11-25T17:43:17;98836.13;;;3.68;100.00
73016;BME280;61893;50.074;14.440;2022-11-25T17:45:44;98837.28;;;3.77;100.00